sensor_id;sensor_type;location;lat;lon;timestamp;P1;durP1;ratioP1;P2;durP2;ratioP2
22046;SDS011;11187;49.412;20.956;2022-11-20T00:01:25;36.75;;;24.08;;
22046;SDS011;11187;49.412;20.956;2022-11-20T00:03:59;32.50;;;23.60;;
22046;SDS011;11187;49.412;20.956;2022-11-20T00:06:53;34.22;;;23.08;;
22046;SDS011;11187;49.412;20.956;2022-11-20T00:09:26;46.50;;;26.33;;
22046;SDS011;11187;49.412;20.956;2022-11-20T00:12:20;57.90;;;30.58;;
22046;SDS011;11187;49.412;20.956;2022-11-20T00:15:14;57.67;;;29.25;;
22046;SDS011;11187;49.412;20.956;2022-11-20T00:17:47;50.15;;;27.88;;
22046;SDS011;11187;49.412;20.956;2022-11-20T00:20:41;47.47;;;27.63;;
22046;SDS011;11187;49.412;20.956;2022-11-20T00:23:35;48.78;;;27.85;;
22046;SDS011;11187;49.412;20.956;2022-11-20T00:26:10;48.15;;;27.80;;
22046;SDS011;11187;49.412;20.956;2022-11-20T00:28:59;44.95;;;27.85;;
22046;SDS011;11187;49.412;20.956;2022-11-20T00:31:34;50.25;;;29.10;;
22046;SDS011;11187;49.412;20.956;2022-11-20T00:34:21;39.50;;;26.83;;
22046;SDS011;11187;49.412;20.956;2022-11-20T00:37:01;47.58;;;28.27;;
22046;SDS011;11187;49.412;20.956;2022-11-20T00:39:55;44.95;;;28.08;;
22046;SDS011;11187;49.412;20.956;2022-11-20T00:42:49;50.72;;;28.98;;
22046;SDS011;11187;49.412;20.956;2022-11-20T00:45:43;51.97;;;30.25;;
22046;SDS011;11187;49.412;20.956;2022-11-20T00:48:16;57.45;;;31.90;;
22046;SDS011;11187;49.412;20.956;2022-11-20T00:51:03;53.75;;;29.55;;
22046;SDS011;11187;49.412;20.956;2022-11-20T00:53:37;46.00;;;28.70;;
22046;SDS011;11187;49.412;20.956;2022-11-20T00:56:31;50.75;;;29.77;;
22046;SDS011;11187;49.412;20.956;2022-11-20T00:59:25;45.83;;;26.25;;
22046;SDS011;11187;49.412;20.956;2022-11-20T01:01:58;33.70;;;24.77;;
22046;SDS011;11187;49.412;20.956;2022-11-20T01:04:45;36.15;;;24.13;;
22046;SDS011;11187;49.412;20.956;2022-11-20T01:07:18;33.78;;;23.73;;
22046;SDS011;11187;49.412;20.956;2022-11-20T01:10:05;35.90;;;23.30;;
22046;SDS011;11187;49.412;20.956;2022-11-20T01:12:38;39.53;;;24.13;;
22046;SDS011;11187;49.412;20.956;2022-11-20T01:15:45;57.05;;;27.38;;
22046;SDS011;11187;49.412;20.956;2022-11-20T01:18:18;64.72;;;31.27;;
22046;SDS011;11187;49.412;20.956;2022-11-20T01:21:12;61.85;;;30.92;;
22046;SDS011;11187;49.412;20.956;2022-11-20T01:23:59;58.75;;;29.90;;
22046;SDS011;11187;49.412;20.956;2022-11-20T01:26:48;65.70;;;30.88;;
22046;SDS011;11187;49.412;20.956;2022-11-20T01:29:22;50.47;;;27.80;;
22046;SDS011;11187;49.412;20.956;2022-11-20T01:32:18;53.70;;;28.75;;
22046;SDS011;11187;49.412;20.956;2022-11-20T01:35:12;47.38;;;27.95;;
22046;SDS011;11187;49.412;20.956;2022-11-20T01:37:45;52.33;;;29.02;;
22046;SDS011;11187;49.412;20.956;2022-11-20T01:40:32;49.90;;;27.90;;
22046;SDS011;11187;49.412;20.956;2022-11-20T01:43:17;45.22;;;26.23;;
22046;SDS011;11187;49.412;20.956;2022-11-20T01:51:44;46.60;;;28.45;;
22046;SDS011;11187;49.412;20.956;2022-11-20T01:54:22;46.45;;;26.48;;
22046;SDS011;11187;49.412;20.956;2022-11-20T01:57:15;40.20;;;26.50;;
22046;SDS011;11187;49.412;20.956;2022-11-20T01:59:51;48.05;;;26.70;;
22046;SDS011;11187;49.412;20.956;2022-11-20T02:02:44;41.65;;;25.15;;
22046;SDS011;11187;49.412;20.956;2022-11-20T02:05:32;39.42;;;25.98;;
22046;SDS011;11187;49.412;20.956;2022-11-20T02:08:25;39.58;;;24.45;;
22046;SDS011;11187;49.412;20.956;2022-11-20T02:10:58;41.45;;;25.52;;
22046;SDS011;11187;49.412;20.956;2022-11-20T02:13:52;46.20;;;27.80;;
22046;SDS011;11187;49.412;20.956;2022-11-20T02:16:46;42.97;;;27.17;;
22046;SDS011;11187;49.412;20.956;2022-11-20T02:19:42;42.03;;;26.33;;
22046;SDS011;11187;49.412;20.956;2022-11-20T02:22:27;45.13;;;26.60;;
22046;SDS011;11187;49.412;20.956;2022-11-20T02:25:24;42.72;;;26.13;;
22046;SDS011;11187;49.412;20.956;2022-11-20T02:28:20;41.35;;;25.02;;
22046;SDS011;11187;49.412;20.956;2022-11-20T02:30:53;43.95;;;25.80;;
22046;SDS011;11187;49.412;20.956;2022-11-20T02:33:40;38.55;;;25.40;;
22046;SDS011;11187;49.412;20.956;2022-11-20T02:36:14;44.75;;;26.73;;
22046;SDS011;11187;49.412;20.956;2022-11-20T02:39:03;49.60;;;27.60;;
22046;SDS011;11187;49.412;20.956;2022-11-20T02:41:57;39.90;;;24.65;;
22046;SDS011;11187;49.412;20.956;2022-11-20T02:44:51;46.42;;;26.48;;
22046;SDS011;11187;49.412;20.956;2022-11-20T02:47:24;48.88;;;27.33;;
22046;SDS011;11187;49.412;20.956;2022-11-20T02:50:18;51.03;;;26.30;;
22046;SDS011;11187;49.412;20.956;2022-11-20T02:52:51;47.67;;;26.00;;
22046;SDS011;11187;49.412;20.956;2022-11-20T02:55:45;47.50;;;26.55;;
22046;SDS011;11187;49.412;20.956;2022-11-20T02:58:39;44.25;;;25.90;;
22046;SDS011;11187;49.412;20.956;2022-11-20T03:01:33;47.10;;;26.65;;
22046;SDS011;11187;49.412;20.956;2022-11-20T03:04:06;48.58;;;29.23;;
22046;SDS011;11187;49.412;20.956;2022-11-20T03:06:53;52.70;;;29.25;;
22046;SDS011;11187;49.412;20.956;2022-11-20T03:09:26;51.20;;;27.67;;
22046;SDS011;11187;49.412;20.956;2022-11-20T03:12:13;39.45;;;25.92;;
22046;SDS011;11187;49.412;20.956;2022-11-20T03:14:46;43.40;;;25.58;;
22046;SDS011;11187;49.412;20.956;2022-11-20T03:17:33;43.60;;;25.98;;
22046;SDS011;11187;49.412;20.956;2022-11-20T03:20:06;47.35;;;26.23;;
22046;SDS011;11187;49.412;20.956;2022-11-20T03:22:54;48.13;;;26.52;;
22046;SDS011;11187;49.412;20.956;2022-11-20T03:25:27;42.88;;;26.40;;
22046;SDS011;11187;49.412;20.956;2022-11-20T03:28:21;43.08;;;25.83;;
22046;SDS011;11187;49.412;20.956;2022-11-20T03:31:16;43.88;;;24.70;;
22046;SDS011;11187;49.412;20.956;2022-11-20T03:33:51;44.53;;;25.10;;
22046;SDS011;11187;49.412;20.956;2022-11-20T03:36:39;43.63;;;24.88;;
22046;SDS011;11187;49.412;20.956;2022-11-20T03:39:13;43.15;;;23.80;;
22046;SDS011;11187;49.412;20.956;2022-11-20T03:42:00;41.88;;;25.40;;
22046;SDS011;11187;49.412;20.956;2022-11-20T03:44:33;45.75;;;25.85;;
22046;SDS011;11187;49.412;20.956;2022-11-20T03:47:20;40.88;;;25.27;;
22046;SDS011;11187;49.412;20.956;2022-11-20T03:49:53;41.83;;;25.23;;
22046;SDS011;11187;49.412;20.956;2022-11-20T03:52:40;43.67;;;24.88;;
22046;SDS011;11187;49.412;20.956;2022-11-20T03:55:13;40.38;;;24.33;;
22046;SDS011;11187;49.412;20.956;2022-11-20T03:58:00;38.55;;;23.98;;
22046;SDS011;11187;49.412;20.956;2022-11-20T04:00:33;47.20;;;24.05;;
22046;SDS011;11187;49.412;20.956;2022-11-20T04:03:20;36.13;;;22.20;;
22046;SDS011;11187;49.412;20.956;2022-11-20T04:05:53;37.50;;;24.23;;
22046;SDS011;11187;49.412;20.956;2022-11-20T04:08:40;33.97;;;21.55;;
22046;SDS011;11187;49.412;20.956;2022-11-20T04:11:20;33.58;;;21.60;;
22046;SDS011;11187;49.412;20.956;2022-11-20T04:14:15;34.75;;;22.23;;
22046;SDS011;11187;49.412;20.956;2022-11-20T04:16:49;37.78;;;22.90;;
22046;SDS011;11187;49.412;20.956;2022-11-20T04:19:36;42.20;;;22.58;;
22046;SDS011;11187;49.412;20.956;2022-11-20T04:22:09;44.15;;;26.38;;
22046;SDS011;11187;49.412;20.956;2022-11-20T04:24:56;50.42;;;26.75;;
22046;SDS011;11187;49.412;20.956;2022-11-20T04:27:30;43.20;;;26.45;;
22046;SDS011;11187;49.412;20.956;2022-11-20T04:30:24;44.38;;;27.08;;
22046;SDS011;11187;49.412;20.956;2022-11-20T04:32:57;42.17;;;24.48;;
22046;SDS011;11187;49.412;20.956;2022-11-20T04:35:44;44.88;;;22.75;;
22046;SDS011;11187;49.412;20.956;2022-11-20T04:38:20;40.95;;;25.73;;
22046;SDS011;11187;49.412;20.956;2022-11-20T04:41:07;44.13;;;26.00;;
22046;SDS011;11187;49.412;20.956;2022-11-20T04:43:46;38.97;;;23.73;;
22046;SDS011;11187;49.412;20.956;2022-11-20T04:46:39;36.97;;;24.48;;
22046;SDS011;11187;49.412;20.956;2022-11-20T04:49:14;35.65;;;24.42;;
22046;SDS011;11187;49.412;20.956;2022-11-20T04:52:01;29.05;;;21.48;;
22046;SDS011;11187;49.412;20.956;2022-11-20T04:54:34;42.42;;;22.83;;
22046;SDS011;11187;49.412;20.956;2022-11-20T04:57:21;40.83;;;23.52;;
22046;SDS011;11187;49.412;20.956;2022-11-20T04:59:54;38.05;;;22.83;;
22046;SDS011;11187;49.412;20.956;2022-11-20T05:02:41;37.45;;;23.40;;
22046;SDS011;11187;49.412;20.956;2022-11-20T05:05:14;34.30;;;23.50;;
22046;SDS011;11187;49.412;20.956;2022-11-20T05:08:01;32.05;;;21.88;;
22046;SDS011;11187;49.412;20.956;2022-11-20T05:10:34;40.05;;;23.63;;
22046;SDS011;11187;49.412;20.956;2022-11-20T05:13:21;39.95;;;24.83;;
22046;SDS011;11187;49.412;20.956;2022-11-20T05:15:54;35.78;;;22.10;;
22046;SDS011;11187;49.412;20.956;2022-11-20T05:18:41;38.00;;;22.05;;
22046;SDS011;11187;49.412;20.956;2022-11-20T05:21:14;32.58;;;22.00;;
22046;SDS011;11187;49.412;20.956;2022-11-20T05:24:02;39.60;;;22.83;;
22046;SDS011;11187;49.412;20.956;2022-11-20T05:26:35;39.40;;;22.95;;
22046;SDS011;11187;49.412;20.956;2022-11-20T05:29:29;37.63;;;22.67;;
22046;SDS011;11187;49.412;20.956;2022-11-20T05:32:02;29.48;;;21.65;;
22046;SDS011;11187;49.412;20.956;2022-11-20T05:34:49;35.63;;;22.83;;
22046;SDS011;11187;49.412;20.956;2022-11-20T05:37:22;36.95;;;21.98;;
22046;SDS011;11187;49.412;20.956;2022-11-20T05:40:09;32.92;;;21.48;;
22046;SDS011;11187;49.412;20.956;2022-11-20T05:43:03;35.53;;;22.42;;
22046;SDS011;11187;49.412;20.956;2022-11-20T05:45:57;34.10;;;22.08;;
22046;SDS011;11187;49.412;20.956;2022-11-20T05:48:51;34.38;;;22.08;;
22046;SDS011;11187;49.412;20.956;2022-11-20T05:51:45;37.13;;;24.00;;
22046;SDS011;11187;49.412;20.956;2022-11-20T05:54:18;41.45;;;24.33;;
22046;SDS011;11187;49.412;20.956;2022-11-20T05:57:05;37.97;;;21.30;;
22046;SDS011;11187;49.412;20.956;2022-11-20T05:59:38;37.05;;;24.67;;
22046;SDS011;11187;49.412;20.956;2022-11-20T06:02:25;38.38;;;22.75;;
22046;SDS011;11187;49.412;20.956;2022-11-20T06:04:58;36.55;;;22.40;;
22046;SDS011;11187;49.412;20.956;2022-11-20T06:07:45;40.30;;;23.77;;
22046;SDS011;11187;49.412;20.956;2022-11-20T06:10:18;34.55;;;22.95;;
22046;SDS011;11187;49.412;20.956;2022-11-20T06:13:12;35.33;;;22.42;;
22046;SDS011;11187;49.412;20.956;2022-11-20T06:15:49;34.30;;;23.77;;
22046;SDS011;11187;49.412;20.956;2022-11-20T06:18:37;36.03;;;23.88;;
22046;SDS011;11187;49.412;20.956;2022-11-20T06:21:11;33.28;;;22.50;;
22046;SDS011;11187;49.412;20.956;2022-11-20T06:24:00;34.67;;;22.63;;
22046;SDS011;11187;49.412;20.956;2022-11-20T06:26:33;37.33;;;23.45;;
22046;SDS011;11187;49.412;20.956;2022-11-20T06:29:20;36.95;;;23.83;;
22046;SDS011;11187;49.412;20.956;2022-11-20T06:31:59;36.60;;;22.25;;
22046;SDS011;11187;49.412;20.956;2022-11-20T06:34:46;37.05;;;22.08;;
22046;SDS011;11187;49.412;20.956;2022-11-20T06:37:19;41.58;;;25.67;;
22046;SDS011;11187;49.412;20.956;2022-11-20T06:40:13;37.67;;;26.48;;
22046;SDS011;11187;49.412;20.956;2022-11-20T06:43:07;46.70;;;27.75;;
22046;SDS011;11187;49.412;20.956;2022-11-20T06:46:04;37.40;;;26.02;;
22046;SDS011;11187;49.412;20.956;2022-11-20T06:48:58;39.22;;;24.45;;
22046;SDS011;11187;49.412;20.956;2022-11-20T06:51:52;35.38;;;22.65;;
22046;SDS011;11187;49.412;20.956;2022-11-20T06:54:25;44.72;;;26.13;;
22046;SDS011;11187;49.412;20.956;2022-11-20T06:57:19;44.38;;;25.55;;
22046;SDS011;11187;49.412;20.956;2022-11-20T06:59:52;55.15;;;30.20;;
22046;SDS011;11187;49.412;20.956;2022-11-20T07:02:39;50.10;;;27.60;;
22046;SDS011;11187;49.412;20.956;2022-11-20T07:05:12;53.50;;;27.75;;
22046;SDS011;11187;49.412;20.956;2022-11-20T07:07:59;53.15;;;27.17;;
22046;SDS011;11187;49.412;20.956;2022-11-20T07:10:32;51.47;;;26.77;;
22046;SDS011;11187;49.412;20.956;2022-11-20T07:13:27;52.80;;;27.63;;
22046;SDS011;11187;49.412;20.956;2022-11-20T07:16:22;46.10;;;26.88;;
22046;SDS011;11187;49.412;20.956;2022-11-20T07:18:55;49.00;;;26.05;;
22046;SDS011;11187;49.412;20.956;2022-11-20T07:21:42;45.53;;;26.67;;
22046;SDS011;11187;49.412;20.956;2022-11-20T07:24:15;46.63;;;25.85;;
22046;SDS011;11187;49.412;20.956;2022-11-20T07:27:02;51.88;;;26.98;;
22046;SDS011;11187;49.412;20.956;2022-11-20T07:29:35;41.03;;;26.58;;
22046;SDS011;11187;49.412;20.956;2022-11-20T07:32:22;45.20;;;26.40;;
22046;SDS011;11187;49.412;20.956;2022-11-20T07:34:55;46.72;;;26.25;;
22046;SDS011;11187;49.412;20.956;2022-11-20T07:37:49;48.15;;;26.70;;
22046;SDS011;11187;49.412;20.956;2022-11-20T07:40:43;42.63;;;26.15;;
22046;SDS011;11187;49.412;20.956;2022-11-20T07:43:37;43.58;;;26.23;;
22046;SDS011;11187;49.412;20.956;2022-11-20T07:46:10;47.72;;;26.33;;
22046;SDS011;11187;49.412;20.956;2022-11-20T07:48:57;44.00;;;26.35;;
22046;SDS011;11187;49.412;20.956;2022-11-20T07:51:30;43.08;;;25.35;;
22046;SDS011;11187;49.412;20.956;2022-11-20T07:54:17;45.17;;;26.52;;
22046;SDS011;11187;49.412;20.956;2022-11-20T07:56:50;46.88;;;25.67;;
22046;SDS011;11187;49.412;20.956;2022-11-20T07:59:44;46.58;;;25.42;;
22046;SDS011;11187;49.412;20.956;2022-11-20T08:02:18;39.75;;;24.77;;
22046;SDS011;11187;49.412;20.956;2022-11-20T08:05:12;43.25;;;24.63;;
22046;SDS011;11187;49.412;20.956;2022-11-20T08:07:45;42.22;;;26.08;;
22046;SDS011;11187;49.412;20.956;2022-11-20T08:10:32;45.60;;;27.55;;
22046;SDS011;11187;49.412;20.956;2022-11-20T08:13:05;51.53;;;29.00;;
22046;SDS011;11187;49.412;20.956;2022-11-20T08:16:17;73.38;;;33.85;;
22046;SDS011;11187;49.412;20.956;2022-11-20T08:19:11;79.05;;;38.40;;
22046;SDS011;11187;49.412;20.956;2022-11-20T08:21:48;79.93;;;37.80;;
22046;SDS011;11187;49.412;20.956;2022-11-20T08:24:42;67.22;;;36.22;;
22046;SDS011;11187;49.412;20.956;2022-11-20T08:27:36;72.53;;;35.95;;
22046;SDS011;11187;49.412;20.956;2022-11-20T08:30:09;75.28;;;38.10;;
22046;SDS011;11187;49.412;20.956;2022-11-20T08:33:01;71.60;;;38.20;;
22046;SDS011;11187;49.412;20.956;2022-11-20T08:35:36;63.53;;;35.20;;
22046;SDS011;11187;49.412;20.956;2022-11-20T08:38:31;58.88;;;32.85;;
22046;SDS011;11187;49.412;20.956;2022-11-20T08:41:25;55.40;;;31.90;;
22046;SDS011;11187;49.412;20.956;2022-11-20T08:44:00;50.60;;;29.65;;
22046;SDS011;11187;49.412;20.956;2022-11-20T08:46:51;58.53;;;30.52;;
22046;SDS011;11187;49.412;20.956;2022-11-20T08:49:24;51.10;;;29.27;;
22046;SDS011;11187;49.412;20.956;2022-11-20T08:52:11;52.28;;;26.73;;
22046;SDS011;11187;49.412;20.956;2022-11-20T08:54:44;52.97;;;25.13;;
22046;SDS011;11187;49.412;20.956;2022-11-20T08:57:37;41.88;;;25.42;;
22046;SDS011;11187;49.412;20.956;2022-11-20T09:00:16;45.83;;;25.60;;
22046;SDS011;11187;49.412;20.956;2022-11-20T09:03:10;43.75;;;23.75;;
22046;SDS011;11187;49.412;20.956;2022-11-20T09:05:43;37.90;;;24.95;;
22046;SDS011;11187;49.412;20.956;2022-11-20T09:08:30;39.78;;;26.02;;
22046;SDS011;11187;49.412;20.956;2022-11-20T09:11:03;40.88;;;24.55;;
22046;SDS011;11187;49.412;20.956;2022-11-20T09:13:58;34.55;;;22.83;;
22046;SDS011;11187;49.412;20.956;2022-11-20T09:16:52;32.63;;;22.88;;
22046;SDS011;11187;49.412;20.956;2022-11-20T09:19:46;34.72;;;22.35;;
22046;SDS011;11187;49.412;20.956;2022-11-20T09:22:40;31.92;;;23.92;;
22046;SDS011;11187;49.412;20.956;2022-11-20T09:25:13;33.60;;;23.40;;
22046;SDS011;11187;49.412;20.956;2022-11-20T09:28:00;32.88;;;23.40;;
22046;SDS011;11187;49.412;20.956;2022-11-20T09:30:33;33.97;;;22.63;;
22046;SDS011;11187;49.412;20.956;2022-11-20T09:33:27;32.75;;;23.52;;
22046;SDS011;11187;49.412;20.956;2022-11-20T09:36:21;34.90;;;21.10;;
22046;SDS011;11187;49.412;20.956;2022-11-20T09:38:54;32.55;;;23.20;;
22046;SDS011;11187;49.412;20.956;2022-11-20T09:56:33;29.90;;;22.45;;
22046;SDS011;11187;49.412;20.956;2022-11-20T10:02:30;31.08;;;22.25;;
22046;SDS011;11187;49.412;20.956;2022-11-20T10:08:30;33.97;;;23.65;;
22046;SDS011;11187;49.412;20.956;2022-11-20T10:21:51;33.90;;;24.00;;
22046;SDS011;11187;49.412;20.956;2022-11-20T10:28:06;35.70;;;22.52;;
22046;SDS011;11187;49.412;20.956;2022-11-20T10:31:10;37.30;;;22.95;;
22046;SDS011;11187;49.412;20.956;2022-11-20T10:37:04;36.38;;;22.77;;
22046;SDS011;11187;49.412;20.956;2022-11-20T10:39:58;32.35;;;22.17;;
22046;SDS011;11187;49.412;20.956;2022-11-20T10:42:45;33.15;;;22.75;;
22046;SDS011;11187;49.412;20.956;2022-11-20T10:45:38;30.63;;;21.77;;
22046;SDS011;11187;49.412;20.956;2022-11-20T10:48:25;27.95;;;20.23;;
22046;SDS011;11187;49.412;20.956;2022-11-20T10:51:15;26.02;;;19.40;;
22046;SDS011;11187;49.412;20.956;2022-11-20T10:54:12;27.35;;;21.83;;
22046;SDS011;11187;49.412;20.956;2022-11-20T11:00:48;25.05;;;19.83;;
22046;SDS011;11187;49.412;20.956;2022-11-20T11:03:28;26.77;;;20.75;;
22046;SDS011;11187;49.412;20.956;2022-11-20T11:06:19;30.33;;;22.60;;
22046;SDS011;11187;49.412;20.956;2022-11-20T11:09:04;29.75;;;21.90;;
22046;SDS011;11187;49.412;20.956;2022-11-20T11:11:58;32.67;;;25.20;;
22046;SDS011;11187;49.412;20.956;2022-11-20T11:14:41;39.00;;;26.00;;
22046;SDS011;11187;49.412;20.956;2022-11-20T11:17:30;46.05;;;29.58;;
22046;SDS011;11187;49.412;20.956;2022-11-20T11:22:58;49.20;;;32.97;;
22046;SDS011;11187;49.412;20.956;2022-11-20T11:25:33;51.70;;;31.50;;
22046;SDS011;11187;49.412;20.956;2022-11-20T11:28:22;47.67;;;29.17;;
22046;SDS011;11187;49.412;20.956;2022-11-20T11:30:58;48.67;;;29.33;;
22046;SDS011;11187;49.412;20.956;2022-11-20T11:33:45;47.20;;;30.25;;
22046;SDS011;11187;49.412;20.956;2022-11-20T11:36:26;53.00;;;30.98;;
22046;SDS011;11187;49.412;20.956;2022-11-20T11:39:16;44.70;;;28.33;;
22046;SDS011;11187;49.412;20.956;2022-11-20T11:42:15;40.88;;;25.75;;
22046;SDS011;11187;49.412;20.956;2022-11-20T11:45:14;44.35;;;27.05;;
22046;SDS011;11187;49.412;20.956;2022-11-20T11:47:50;40.15;;;26.40;;
22046;SDS011;11187;49.412;20.956;2022-11-20T11:50:48;37.42;;;24.77;;
22046;SDS011;11187;49.412;20.956;2022-11-20T11:53:43;38.00;;;25.52;;
22046;SDS011;11187;49.412;20.956;2022-11-20T11:56:22;43.25;;;25.42;;
22046;SDS011;11187;49.412;20.956;2022-11-20T11:59:10;40.40;;;25.02;;
22046;SDS011;11187;49.412;20.956;2022-11-20T12:01:55;31.40;;;22.23;;
22046;SDS011;11187;49.412;20.956;2022-11-20T12:04:54;32.08;;;21.60;;
22046;SDS011;11187;49.412;20.956;2022-11-20T12:07:45;31.60;;;22.33;;
22046;SDS011;11187;49.412;20.956;2022-11-20T12:10:52;27.88;;;22.30;;
22046;SDS011;11187;49.412;20.956;2022-11-20T12:14:00;33.08;;;23.85;;
22046;SDS011;11187;49.412;20.956;2022-11-20T12:16:46;28.23;;;21.00;;
22046;SDS011;11187;49.412;20.956;2022-11-20T12:19:35;30.17;;;21.02;;
22046;SDS011;11187;49.412;20.956;2022-11-20T12:25:19;33.88;;;21.15;;
22046;SDS011;11187;49.412;20.956;2022-11-20T12:28:06;28.75;;;20.67;;
22046;SDS011;11187;49.412;20.956;2022-11-20T12:34:13;30.52;;;21.35;;
22046;SDS011;11187;49.412;20.956;2022-11-20T12:37:24;36.72;;;21.73;;
22046;SDS011;11187;49.412;20.956;2022-11-20T12:43:46;36.45;;;24.77;;
22046;SDS011;11187;49.412;20.956;2022-11-20T12:53:56;29.35;;;21.25;;
22046;SDS011;11187;49.412;20.956;2022-11-20T13:00:22;31.13;;;22.02;;
22046;SDS011;11187;49.412;20.956;2022-11-20T13:06:25;27.48;;;22.48;;
22046;SDS011;11187;49.412;20.956;2022-11-20T13:09:19;33.30;;;21.27;;
22046;SDS011;11187;49.412;20.956;2022-11-20T13:15:14;30.40;;;22.67;;
22046;SDS011;11187;49.412;20.956;2022-11-20T13:18:26;34.47;;;23.20;;
22046;SDS011;11187;49.412;20.956;2022-11-20T13:21:00;30.90;;;21.90;;
22046;SDS011;11187;49.412;20.956;2022-11-20T13:24:03;33.75;;;23.90;;
22046;SDS011;11187;49.412;20.956;2022-11-20T13:27:01;30.00;;;21.17;;
22046;SDS011;11187;49.412;20.956;2022-11-20T13:29:43;31.90;;;23.67;;
22046;SDS011;11187;49.412;20.956;2022-11-20T13:32:47;32.58;;;23.60;;
22046;SDS011;11187;49.412;20.956;2022-11-20T13:38:20;35.67;;;26.05;;
22046;SDS011;11187;49.412;20.956;2022-11-20T13:41:01;56.60;;;30.05;;
22046;SDS011;11187;49.412;20.956;2022-11-20T13:46:44;44.00;;;30.10;;
22046;SDS011;11187;49.412;20.956;2022-11-20T13:49:39;67.60;;;38.10;;
22046;SDS011;11187;49.412;20.956;2022-11-20T13:55:24;33.65;;;26.20;;
22046;SDS011;11187;49.412;20.956;2022-11-20T14:01:21;40.22;;;27.35;;
22046;SDS011;11187;49.412;20.956;2022-11-20T14:03:56;38.88;;;28.60;;
22046;SDS011;11187;49.412;20.956;2022-11-20T14:06:51;34.17;;;24.38;;
22046;SDS011;11187;49.412;20.956;2022-11-20T14:09:52;34.92;;;25.85;;
22046;SDS011;11187;49.412;20.956;2022-11-20T14:12:31;40.45;;;25.88;;
22046;SDS011;11187;49.412;20.956;2022-11-20T14:15:26;37.08;;;26.20;;
22046;SDS011;11187;49.412;20.956;2022-11-20T14:17:59;40.97;;;27.20;;
22046;SDS011;11187;49.412;20.956;2022-11-20T14:21:04;50.17;;;30.70;;
22046;SDS011;11187;49.412;20.956;2022-11-20T14:23:37;42.25;;;28.50;;
22046;SDS011;11187;49.412;20.956;2022-11-20T14:26:24;38.53;;;27.38;;
22046;SDS011;11187;49.412;20.956;2022-11-20T14:28:57;33.58;;;26.33;;
22046;SDS011;11187;49.412;20.956;2022-11-20T14:31:44;40.42;;;26.58;;
22046;SDS011;11187;49.412;20.956;2022-11-20T14:34:22;39.13;;;26.20;;
22046;SDS011;11187;49.412;20.956;2022-11-20T14:37:12;45.08;;;29.02;;
22046;SDS011;11187;49.412;20.956;2022-11-20T14:39:54;42.10;;;28.02;;
22046;SDS011;11187;49.412;20.956;2022-11-20T14:42:43;58.92;;;36.25;;
22046;SDS011;11187;49.412;20.956;2022-11-20T14:45:16;55.63;;;33.03;;
22046;SDS011;11187;49.412;20.956;2022-11-20T14:48:11;47.00;;;28.83;;
22046;SDS011;11187;49.412;20.956;2022-11-20T14:51:05;55.25;;;31.23;;
22046;SDS011;11187;49.412;20.956;2022-11-20T14:53:38;58.92;;;32.55;;
22046;SDS011;11187;49.412;20.956;2022-11-20T14:56:25;54.97;;;31.08;;
22046;SDS011;11187;49.412;20.956;2022-11-20T14:58:58;47.42;;;28.77;;
22046;SDS011;11187;49.412;20.956;2022-11-20T15:01:53;49.33;;;29.80;;
22046;SDS011;11187;49.412;20.956;2022-11-20T15:04:31;52.60;;;30.92;;
22046;SDS011;11187;49.412;20.956;2022-11-20T15:07:31;53.20;;;29.33;;
22046;SDS011;11187;49.412;20.956;2022-11-20T15:10:08;57.60;;;33.08;;
22046;SDS011;11187;49.412;20.956;2022-11-20T15:12:59;43.58;;;29.08;;
22046;SDS011;11187;49.412;20.956;2022-11-20T15:15:48;55.42;;;28.83;;
22046;SDS011;11187;49.412;20.956;2022-11-20T15:18:38;68.50;;;33.00;;
22046;SDS011;11187;49.412;20.956;2022-11-20T15:21:19;82.30;;;40.00;;
22046;SDS011;11187;49.412;20.956;2022-11-20T15:24:08;92.80;;;40.92;;
22046;SDS011;11187;49.412;20.956;2022-11-20T15:26:41;96.97;;;40.40;;
22046;SDS011;11187;49.412;20.956;2022-11-20T15:29:29;73.28;;;35.08;;
22046;SDS011;11187;49.412;20.956;2022-11-20T15:32:02;64.95;;;34.75;;
22046;SDS011;11187;49.412;20.956;2022-11-20T15:34:56;68.60;;;33.78;;
22046;SDS011;11187;49.412;20.956;2022-11-20T15:37:29;54.33;;;31.95;;
22046;SDS011;11187;49.412;20.956;2022-11-20T15:40:23;58.00;;;30.52;;
22046;SDS011;11187;49.412;20.956;2022-11-20T15:43:17;48.55;;;30.27;;
22046;SDS011;11187;49.412;20.956;2022-11-20T15:46:12;58.67;;;34.42;;
22046;SDS011;11187;49.412;20.956;2022-11-20T15:48:52;70.22;;;35.10;;
22046;SDS011;11187;49.412;20.956;2022-11-20T15:51:42;68.80;;;35.55;;
22046;SDS011;11187;49.412;20.956;2022-11-20T15:54:17;80.35;;;37.35;;
22046;SDS011;11187;49.412;20.956;2022-11-20T15:57:08;83.32;;;39.10;;
22046;SDS011;11187;49.412;20.956;2022-11-20T15:59:41;79.20;;;38.92;;
22046;SDS011;11187;49.412;20.956;2022-11-20T16:02:28;71.78;;;36.97;;
22046;SDS011;11187;49.412;20.956;2022-11-20T16:05:01;53.78;;;31.35;;
22046;SDS011;11187;49.412;20.956;2022-11-20T16:07:48;67.97;;;33.92;;
22046;SDS011;11187;49.412;20.956;2022-11-20T16:10:22;56.78;;;31.55;;
22046;SDS011;11187;49.412;20.956;2022-11-20T16:13:16;58.53;;;31.48;;
22046;SDS011;11187;49.412;20.956;2022-11-20T16:16:31;53.95;;;32.45;;
22046;SDS011;11187;49.412;20.956;2022-11-20T16:19:27;63.38;;;34.03;;
22046;SDS011;11187;49.412;20.956;2022-11-20T16:22:00;56.95;;;34.35;;
22046;SDS011;11187;49.412;20.956;2022-11-20T16:24:54;60.47;;;36.60;;
22046;SDS011;11187;49.412;20.956;2022-11-20T16:27:48;67.97;;;35.50;;
22046;SDS011;11187;49.412;20.956;2022-11-20T16:30:21;68.95;;;37.30;;
22046;SDS011;11187;49.412;20.956;2022-11-20T16:33:15;60.92;;;36.08;;
22046;SDS011;11187;49.412;20.956;2022-11-20T16:35:52;63.88;;;36.33;;
22046;SDS011;11187;49.412;20.956;2022-11-20T16:38:51;75.80;;;35.67;;
22046;SDS011;11187;49.412;20.956;2022-11-20T16:41:26;64.68;;;35.30;;
22046;SDS011;11187;49.412;20.956;2022-11-20T16:44:14;63.97;;;36.65;;
22046;SDS011;11187;49.412;20.956;2022-11-20T16:46:48;72.80;;;39.38;;
22046;SDS011;11187;49.412;20.956;2022-11-20T16:49:35;93.75;;;45.40;;
22046;SDS011;11187;49.412;20.956;2022-11-20T16:52:08;109.72;;;46.40;;
22046;SDS011;11187;49.412;20.956;2022-11-20T16:55:02;80.95;;;39.53;;
22046;SDS011;11187;49.412;20.956;2022-11-20T16:57:56;94.35;;;40.80;;
22046;SDS011;11187;49.412;20.956;2022-11-20T17:00:29;85.72;;;40.45;;
22046;SDS011;11187;49.412;20.956;2022-11-20T17:03:23;88.03;;;40.83;;
22046;SDS011;11187;49.412;20.956;2022-11-20T17:06:16;101.90;;;45.13;;
22046;SDS011;11187;49.412;20.956;2022-11-20T17:08:52;84.97;;;40.88;;
22046;SDS011;11187;49.412;20.956;2022-11-20T17:11:39;86.15;;;40.70;;
22046;SDS011;11187;49.412;20.956;2022-11-20T17:14:12;93.88;;;44.15;;
22046;SDS011;11187;49.412;20.956;2022-11-20T17:17:06;121.28;;;50.55;;
22046;SDS011;11187;49.412;20.956;2022-11-20T17:19:39;118.15;;;50.20;;
22046;SDS011;11187;49.412;20.956;2022-11-20T17:22:33;91.95;;;46.55;;